Time;durP1;ratioP1;P1;durP2;ratioP2;P2;SDS_P1;SDS_P2;PMS_P1;PMS_P2;Temp;Humidity;BMP_temperature;BMP_pressure;BME280_temperature;BME280_humidity;BME280_pressure;Samples;Min_cycle;Max_cycle;Signal;HPM_P1;HPM_P2
2023/04/03 00:01:04;;;;;;;0.60;0.60;;;7.40;99.90;;;;;;5033192;28;20603;-73
2023/04/03 00:03:30;;;;;;;0.50;0.50;;;7.40;99.90;;;;;;5032758;28;20530;-73
2023/04/03 00:05:55;;;;;;;0.40;0.40;;;7.20;99.90;;;;;;5033006;28;20264;-73
2023/04/03 00:08:21;;;;;;;0.30;0.30;;;7.20;99.90;;;;;;5033054;28;20257;-73
2023/04/03 00:10:47;;;;;;;0.40;0.40;;;7.10;99.90;;;;;;5032699;28;20210;-73
2023/04/03 00:13:13;;;;;;;0.37;0.37;;;7.20;99.90;;;;;;5014942;28;20189;-73
2023/04/03 00:15:39;;;;;;;0.40;0.40;;;7.30;99.90;;;;;;5033045;28;20253;-73
2023/04/03 00:18:06;;;;;;;0.40;0.40;;;7.20;99.90;;;;;;5033381;28;20412;-73
2023/04/03 00:20:32;;;;;;;0.40;0.40;;;7.60;99.90;;;;;;5032973;28;20201;-73
2023/04/03 00:22:58;;;;;;;0.40;0.40;;;7.40;99.90;;;;;;5032577;28;20178;-73
2023/04/03 00:25:24;;;;;;;0.43;0.43;;;7.40;99.90;;;;;;5033142;28;20178;-73
2023/04/03 00:27:50;;;;;;;0.30;0.30;;;7.40;99.90;;;;;;5033025;28;20175;-73
2023/04/03 00:30:18;;;;;;;0.40;0.40;;;7.40;99.90;;;;;;5032822;28;20732;-73
2023/04/03 00:32:44;;;;;;;0.40;0.40;;;7.50;99.90;;;;;;5034218;28;20400;-73
2023/04/03 00:35:10;;;;;;;0.33;0.33;;;7.50;99.90;;;;;;5036319;28;20652;-73
2023/04/03 00:37:36;;;;;;;0.30;0.30;;;7.60;99.90;;;;;;5036699;28;20197;-73
2023/04/03 00:40:02;;;;;;;0.30;0.30;;;7.50;99.90;;;;;;5036666;28;20782;-73
2023/04/03 00:42:28;;;;;;;0.30;0.30;;;7.50;99.90;;;;;;5036613;28;20400;-73
2023/04/03 00:44:57;;;;;;;0.30;0.30;;;7.60;99.90;;;;;;5036200;28;20253;-73
2023/04/03 00:47:24;;;;;;;5.28;1.35;;;7.50;99.90;;;;;;5036503;28;20652;-73
2023/04/03 00:49:51;;;;;;;0.30;0.30;;;7.50;99.90;;;;;;5036455;28;20654;-73
2023/04/03 00:52:23;;;;;;;0.60;0.47;;;7.50;99.90;;;;;;5036377;28;20202;-73
2023/04/03 00:54:51;;;;;;;0.40;0.40;;;7.60;99.90;;;;;;5036043;28;20170;-73
2023/04/03 00:57:17;;;;;;;0.30;0.30;;;7.50;99.90;;;;;;5036466;28;20560;-73
2023/04/03 00:59:48;;;;;;;1.08;1.05;;;7.40;99.90;;;;;;5036292;28;20188;-73
2023/04/03 01:02:14;;;;;;;0.30;0.30;;;7.30;99.90;;;;;;5036253;28;20170;-73
2023/04/03 01:04:42;;;;;;;0.30;0.30;;;7.20;99.90;;;;;;5035881;28;20666;-73
2023/04/03 01:07:29;;;;;;;0.65;0.65;;;7.20;99.90;;;;;;5036177;28;20567;-73
2023/04/03 01:10:00;;;;;;;0.47;0.47;;;7.20;99.90;;;;;;5035917;28;20223;-73
2023/04/03 01:12:32;;;;;;;0.30;0.30;;;7.10;99.90;;;;;;5018242;28;20657;-73
2023/04/03 01:15:00;;;;;;;0.75;0.75;;;7.00;99.90;;;;;;5017709;28;20199;-73
2023/04/03 01:17:32;;;;;;;2.65;1.20;;;6.90;99.90;;;;;;5035984;28;20174;-73
2023/04/03 01:20:14;;;;;;;0.40;0.40;;;6.90;99.90;;;;;;5035921;28;20197;-73
2023/04/03 01:23:01;;;;;;;0.40;0.40;;;6.30;99.90;;;;;;5036061;28;20184;-73
2023/04/03 01:25:27;;;;;;;0.40;0.40;;;6.00;99.90;;;;;;5035996;28;20168;-73
2023/04/03 01:27:53;;;;;;;1.37;1.37;;;5.90;99.90;;;;;;5035996;28;20176;-73
2023/04/03 01:30:23;;;;;;;2.53;2.38;;;5.70;99.90;;;;;;5035516;28;20451;-73
2023/04/03 01:32:49;;;;;;;0.38;0.38;;;5.90;99.90;;;;;;5035087;28;20611;-73
2023/04/03 01:35:14;;;;;;;0.40;0.40;;;6.00;99.90;;;;;;5035561;28;20162;-73
2023/04/03 01:37:40;;;;;;;0.37;0.37;;;6.10;99.90;;;;;;5035732;28;20258;-73
2023/04/03 01:40:08;;;;;;;0.30;0.30;;;6.20;99.90;;;;;;5035557;28;20192;-73
2023/04/03 01:42:33;;;;;;;1.02;1.02;;;6.10;99.90;;;;;;5035772;28;20586;-73
2023/04/03 01:44:59;;;;;;;1.00;1.00;;;6.20;99.90;;;;;;5034776;28;20203;-73
2023/04/03 01:47:25;;;;;;;0.40;0.40;;;6.30;99.90;;;;;;5035505;28;20401;-73
2023/04/03 01:49:50;;;;;;;0.53;0.53;;;6.30;99.90;;;;;;5035158;28;20193;-73
2023/04/03 01:52:16;;;;;;;0.50;0.50;;;6.50;99.90;;;;;;5035512;28;20761;-73
2023/04/03 01:54:42;;;;;;;0.80;0.80;;;6.40;99.90;;;;;;5034977;28;20176;-73
2023/04/03 01:57:07;;;;;;;0.40;0.40;;;6.40;99.90;;;;;;5035206;28;20173;-73
2023/04/03 01:59:33;;;;;;;1.77;1.17;;;6.50;99.90;;;;;;5017422;28;20611;-73
2023/04/03 02:01:58;;;;;;;0.50;0.50;;;6.50;99.90;;;;;;5035050;28;20180;-73
2023/04/03 02:04:24;;;;;;;1.27;1.27;;;6.40;99.90;;;;;;5034540;28;20199;-73
2023/04/03 02:06:50;;;;;;;0.97;0.97;;;6.40;99.90;;;;;;5035066;28;20164;-73
2023/04/03 02:09:15;;;;;;;0.37;0.37;;;6.50;99.90;;;;;;5034879;28;20663;-73
2023/04/03 02:11:41;;;;;;;0.33;0.33;;;6.40;99.90;;;;;;5034872;28;20188;-73
2023/04/03 02:14:07;;;;;;;0.83;0.83;;;6.30;99.90;;;;;;5034430;28;20278;-73
2023/04/03 02:16:32;;;;;;;0.50;0.50;;;6.20;99.90;;;;;;5034738;28;20208;-73
2023/04/03 02:18:58;;;;;;;0.40;0.40;;;5.90;99.90;;;;;;5034714;28;20182;-73
2023/04/03 02:21:24;;;;;;;0.40;0.40;;;5.80;99.90;;;;;;5034816;28;20533;-73
2023/04/03 02:23:50;;;;;;;0.50;0.50;;;5.90;99.90;;;;;;5034307;28;20179;-73
2023/04/03 02:26:16;;;;;;;0.40;0.40;;;5.70;99.90;;;;;;5034819;28;20421;-73
2023/04/03 02:28:42;;;;;;;0.40;0.40;;;5.60;99.90;;;;;;5034545;28;20203;-73
2023/04/03 02:31:08;;;;;;;0.40;0.40;;;5.80;99.90;;;;;;5034531;28;20234;-73
2023/04/03 02:33:36;;;;;;;0.55;0.55;;;5.60;99.90;;;;;;5016270;28;20182;-73
2023/04/03 02:36:03;;;;;;;0.40;0.40;;;5.70;99.90;;;;;;5034585;28;20173;-73
2023/04/03 02:38:29;;;;;;;0.73;0.73;;;5.50;99.90;;;;;;5034374;28;20258;-72
2023/04/03 02:41:04;;;;;;;0.40;0.40;;;5.30;99.90;;;;;;5034216;28;20264;-73
2023/04/03 02:43:30;;;;;;;0.30;0.30;;;5.20;99.90;;;;;;5033975;28;20787;-73
2023/04/03 02:45:56;;;;;;;0.30;0.30;;;5.30;99.90;;;;;;5034324;28;20248;-73
2023/04/03 02:48:22;;;;;;;0.40;0.40;;;5.50;99.90;;;;;;5034407;28;20405;-73
2023/04/03 02:50:48;;;;;;;0.40;0.40;;;5.20;99.90;;;;;;5033977;28;20201;-72
2023/04/03 02:53:15;;;;;;;0.40;0.40;;;5.40;99.90;;;;;;5033806;28;20178;-73
2023/04/03 02:55:40;;;;;;;0.40;0.40;;;5.10;99.90;;;;;;5033462;28;20164;-73
2023/04/03 02:58:06;;;;;;;0.40;0.40;;;5.50;99.90;;;;;;5034223;28;20179;-73
2023/04/03 03:00:32;;;;;;;0.40;0.40;;;5.60;99.90;;;;;;5033970;28;20277;-73
2023/04/03 03:02:58;;;;;;;0.40;0.40;;;5.40;99.90;;;;;;5033490;28;20468;-73
2023/04/03 03:05:24;;;;;;;0.40;0.40;;;5.40;99.90;;;;;;5034102;28;20560;-73
2023/04/03 03:07:49;;;;;;;0.40;0.40;;;5.50;99.90;;;;;;5033920;28;20221;-73
2023/04/03 03:10:15;;;;;;;0.40;0.40;;;5.60;99.90;;;;;;5033558;28;20694;-73
2023/04/03 03:12:41;;;;;;;0.40;0.40;;;5.50;99.90;;;;;;5033809;28;20402;-73
2023/04/03 03:15:07;;;;;;;0.30;0.30;;;5.50;99.90;;;;;;5032989;28;20264;-73
2023/04/03 03:17:33;;;;;;;0.40;0.40;;;5.40;99.90;;;;;;5033739;28;20215;-72
2023/04/03 03:19:59;;;;;;;0.40;0.40;;;5.20;99.90;;;;;;5033376;28;20429;-73
2023/04/03 03:22:26;;;;;;;0.63;0.63;;;4.70;99.90;;;;;;5015578;28;20463;-72
2023/04/03 03:24:51;;;;;;;0.40;0.40;;;4.40;99.90;;;;;;5033294;28;20175;-72
2023/04/03 03:27:17;;;;;;;0.40;0.40;;;4.80;99.90;;;;;;5033483;28;20167;-72
2023/04/03 03:29:43;;;;;;;0.50;0.50;;;4.50;99.90;;;;;;5033537;28;20662;-73
2023/04/03 03:32:08;;;;;;;0.40;0.40;;;4.40;99.90;;;;;;5033569;28;20202;-73
2023/04/03 03:34:34;;;;;;;0.40;0.40;;;4.30;99.90;;;;;;5033049;28;20182;-72
2023/04/03 03:37:00;;;;;;;0.40;0.40;;;4.20;99.90;;;;;;5033459;28;20167;-72
2023/04/03 03:39:26;;;;;;;0.40;0.40;;;4.90;99.90;;;;;;5033424;28;20250;-73
2023/04/03 03:41:53;;;;;;;0.40;0.40;;;4.70;99.90;;;;;;5033325;28;20167;-73
2023/04/03 03:44:19;;;;;;;0.40;0.40;;;4.70;99.90;;;;;;5032831;28;20701;-72
2023/04/03 03:46:45;;;;;;;0.70;0.70;;;4.40;99.90;;;;;;5033228;28;20175;-72
2023/04/03 03:49:11;;;;;;;0.30;0.30;;;4.30;99.90;;;;;;5033299;28;20179;-73
2023/04/03 03:51:37;;;;;;;0.40;0.40;;;4.60;99.90;;;;;;5015319;28;20690;-72
2023/04/03 03:54:04;;;;;;;0.40;0.40;;;4.40;99.90;;;;;;5032743;28;20206;-73
2023/04/03 03:56:30;;;;;;;0.40;0.40;;;4.50;99.90;;;;;;5033128;28;20526;-72
2023/04/03 03:58:56;;;;;;;0.40;0.40;;;4.50;99.90;;;;;;5033100;28;20174;-73
2023/04/03 04:01:23;;;;;;;0.40;0.40;;;4.70;99.90;;;;;;5033067;28;20187;-73
2023/04/03 04:03:49;;;;;;;0.40;0.40;;;4.90;99.90;;;;;;5032856;28;20167;-73
2023/04/03 04:06:15;;;;;;;0.40;0.40;;;5.10;99.90;;;;;;5033623;28;20178;-73
2023/04/03 04:08:40;;;;;;;0.40;0.40;;;5.00;99.90;;;;;;5037398;28;20409;-72
2023/04/03 04:11:07;;;;;;;0.40;0.40;;;4.90;99.90;;;;;;5036839;28;20490;-73
2023/04/03 04:13:32;;;;;;;0.70;0.70;;;4.90;99.90;;;;;;5036822;28;20179;-73
2023/04/03 04:15:58;;;;;;;0.40;0.40;;;5.00;99.90;;;;;;5037280;28;20178;-73
2023/04/03 04:18:24;;;;;;;0.90;0.90;;;5.00;99.90;;;;;;5037057;28;20178;-73
2023/04/03 04:20:49;;;;;;;0.93;0.93;;;5.00;99.90;;;;;;5036923;28;20214;-73
2023/04/03 04:23:17;;;;;;;0.93;0.93;;;5.00;99.90;;;;;;5036628;28;20752;-73
2023/04/03 04:25:47;;;;;;;0.40;0.40;;;5.00;99.90;;;;;;5037029;28;20170;-73
2023/04/03 04:28:13;;;;;;;0.60;0.60;;;5.00;99.90;;;;;;5036841;28;20179;-73
2023/04/03 04:30:39;;;;;;;0.70;0.70;;;5.10;99.90;;;;;;5036621;28;20612;-73
2023/04/03 04:33:05;;;;;;;0.40;0.40;;;4.90;99.90;;;;;;5036484;28;20163;-73
2023/04/03 04:35:31;;;;;;;0.98;0.50;;;5.00;99.90;;;;;;5036807;28;20159;-73
2023/04/03 04:37:56;;;;;;;0.40;0.40;;;5.20;99.90;;;;;;5036788;28;20171;-72
2023/04/03 04:40:22;;;;;;;1.67;0.73;;;4.90;99.90;;;;;;5036631;28;20226;-73
2023/04/03 04:42:48;;;;;;;0.43;0.43;;;4.90;99.90;;;;;;5036582;28;20171;-72
2023/04/03 04:45:14;;;;;;;2.70;1.23;;;5.10;99.90;;;;;;5036589;28;20514;-73
2023/04/03 04:47:41;;;;;;;1.63;1.63;;;4.80;99.90;;;;;;5036835;28;20182;-72
2023/04/03 04:50:07;;;;;;;0.50;0.50;;;4.80;99.90;;;;;;5036418;28;20201;-73
2023/04/03 04:52:33;;;;;;;0.82;0.82;;;4.80;99.90;;;;;;5036387;28;20249;-73
2023/04/03 04:54:59;;;;;;;0.80;0.80;;;4.90;99.90;;;;;;5036121;28;20254;-73
2023/04/03 04:57:25;;;;;;;0.40;0.40;;;4.80;99.90;;;;;;5036547;28;20882;-73
2023/04/03 04:59:51;;;;;;;1.40;1.40;;;4.70;99.90;;;;;;5036507;28;20241;-73
2023/04/03 05:02:17;;;;;;;0.80;0.80;;;4.70;99.90;;;;;;5036199;28;20173;-72
2023/04/03 05:04:42;;;;;;;0.80;0.80;;;4.50;99.90;;;;;;5018091;28;20626;-73
2023/04/03 05:07:08;;;;;;;0.40;0.40;;;4.60;99.90;;;;;;5036156;28;20559;-73
2023/04/03 05:09:34;;;;;;;0.40;0.40;;;4.60;99.90;;;;;;5036001;28;20229;-73
2023/04/03 05:12:00;;;;;;;0.40;0.40;;;4.70;99.90;;;;;;5035973;28;20249;-72
2023/04/03 05:14:25;;;;;;;3.70;2.20;;;4.70;99.90;;;;;;5035488;28;20965;-73
2023/04/03 05:16:54;;;;;;;0.40;0.40;;;4.60;99.90;;;;;;5035875;28;20397;-73
2023/04/03 05:19:22;;;;;;;1.65;0.95;;;4.70;99.90;;;;;;5035156;28;20171;-73
2023/04/03 05:21:48;;;;;;;0.40;0.40;;;4.70;99.90;;;;;;5035818;28;20183;-73
2023/04/03 05:24:14;;;;;;;1.60;1.50;;;4.90;99.90;;;;;;5017626;28;20266;-73
2023/04/03 05:26:41;;;;;;;1.05;0.70;;;4.80;99.90;;;;;;5035717;28;20175;-73
2023/04/03 05:29:06;;;;;;;0.40;0.40;;;4.70;99.90;;;;;;5035727;28;20179;-72
2023/04/03 05:31:32;;;;;;;1.00;1.00;;;5.10;99.90;;;;;;5035617;28;20205;-73
2023/04/03 05:33:58;;;;;;;0.40;0.40;;;4.70;99.90;;;;;;5035233;28;20171;-72
2023/04/03 05:36:25;;;;;;;0.30;0.30;;;4.70;99.90;;;;;;5035815;28;20202;-73
2023/04/03 05:38:51;;;;;;;0.40;0.40;;;4.80;99.90;;;;;;5035655;28;20171;-72
2023/04/03 05:41:16;;;;;;;1.23;1.20;;;4.30;99.90;;;;;;5035562;28;20210;-72
2023/04/03 05:43:42;;;;;;;0.40;0.40;;;4.20;99.90;;;;;;5035034;28;20450;-72
2023/04/03 05:46:26;;;;;;;0.40;0.40;;;4.20;99.90;;;;;;5035427;28;20617;-72
2023/04/03 05:48:51;;;;;;;0.40;0.40;;;4.10;99.90;;;;;;5035658;28;20175;-72
2023/04/03 05:51:25;;;;;;;0.77;0.77;;;4.10;99.90;;;;;;5035117;28;20210;-72
2023/04/03 05:53:59;;;;;;;0.32;0.32;;;4.00;99.90;;;;;;5034875;28;20282;-72
2023/04/03 05:56:25;;;;;;;0.40;0.40;;;4.10;99.90;;;;;;5035327;28;20561;-72
2023/04/03 05:58:51;;;;;;;0.80;0.63;;;4.10;99.90;;;;;;5035264;28;20159;-73
2023/04/03 06:01:16;;;;;;;0.40;0.40;;;4.40;99.90;;;;;;5017318;28;20443;-72
2023/04/03 06:03:42;;;;;;;1.17;1.03;;;4.70;99.90;;;;;;5034360;28;20174;-72
2023/04/03 06:06:11;;;;;;;0.43;0.43;;;4.90;99.90;;;;;;5035130;28;20410;-73
2023/04/03 06:08:38;;;;;;;0.60;0.60;;;5.00;99.90;;;;;;5035188;28;20186;-73
2023/04/03 06:11:03;;;;;;;0.63;0.63;;;5.10;99.10;;;;;;5035121;28;20213;-73
2023/04/03 06:13:29;;;;;;;3.30;3.03;;;5.30;98.80;;;;;;5016958;28;20509;-73
2023/04/03 06:15:57;;;;;;;3.53;1.17;;;5.40;98.60;;;;;;5035396;28;20171;-73
2023/04/03 06:18:23;;;;;;;0.30;0.30;;;5.60;98.50;;;;;;5035397;28;20168;-74
2023/04/03 06:20:53;;;;;;;0.40;0.40;;;5.60;98.20;;;;;;5017008;28;20310;-74
2023/04/03 06:23:19;;;;;;;0.50;0.50;;;5.70;98.00;;;;;;5034031;28;20189;-73
2023/04/03 06:25:44;;;;;;;0.40;0.40;;;5.80;97.90;;;;;;5035098;28;20264;-74
2023/04/03 06:28:10;;;;;;;0.30;0.30;;;5.80;97.80;;;;;;5035185;28;20179;-74
2023/04/03 06:30:36;;;;;;;0.70;0.67;;;5.80;98.10;;;;;;5033252;28;20206;-74
2023/04/03 06:33:03;;;;;;;0.60;0.60;;;5.90;98.30;;;;;;5034223;28;20171;-74
2023/04/03 06:35:30;;;;;;;0.88;0.88;;;5.90;96.60;;;;;;5034602;28;20196;-74
2023/04/03 06:37:56;;;;;;;0.40;0.40;;;5.90;96.10;;;;;;5034688;28;20171;-74
2023/04/03 06:40:24;;;;;;;3.30;2.38;;;5.90;96.20;;;;;;5034372;28;20218;-74
2023/04/03 06:42:50;;;;;;;0.80;0.80;;;5.80;96.70;;;;;;5034423;28;20174;-73
2023/04/03 06:45:16;;;;;;;0.73;0.70;;;5.80;96.70;;;;;;5034846;28;20179;-74
2023/04/03 06:47:42;;;;;;;0.90;0.80;;;5.80;97.10;;;;;;5034182;28;20179;-75
2023/04/03 06:50:11;;;;;;;1.17;1.07;;;5.90;97.20;;;;;;5034390;28;20785;-75
2023/04/03 06:52:39;;;;;;;0.50;0.50;;;5.70;96.10;;;;;;5034302;28;20179;-74
2023/04/03 06:55:05;;;;;;;0.63;0.63;;;5.30;96.30;;;;;;5015105;28;20575;-74
2023/04/03 06:57:31;;;;;;;0.70;0.60;;;5.10;96.30;;;;;;5034223;28;20174;-74
2023/04/03 06:59:57;;;;;;;0.93;0.80;;;;;;;;;;5034637;28;20470;-74
2023/04/03 07:02:23;;;;;;;0.70;0.70;;;4.60;96.10;;;;;;5033982;28;20163;-78
2023/04/03 07:04:48;;;;;;;0.73;0.70;;;4.30;96.40;;;;;;5033735;28;20171;-75
2023/04/03 07:07:14;;;;;;;1.20;1.17;;;4.10;96.90;;;;;;5034177;28;20406;-75
2023/04/03 07:09:40;;;;;;;1.75;1.02;;;3.90;97.40;;;;;;5033517;28;20574;-74
2023/04/03 07:12:06;;;;;;;0.50;0.50;;;4.10;97.90;;;;;;5032802;28;20334;-74
2023/04/03 07:14:31;;;;;;;1.23;0.63;;;4.20;97.90;;;;;;5032464;28;20639;-75
2023/04/03 07:16:57;;;;;;;0.67;0.67;;;4.40;97.50;;;;;;5033522;28;20244;-74
2023/04/03 07:19:24;;;;;;;1.80;1.80;;;4.30;99.90;;;;;;5033830;28;20546;-74
2023/04/03 07:21:50;;;;;;;1.27;1.27;;;4.80;97.30;;;;;;5033410;28;20167;-75
2023/04/03 07:24:15;;;;;;;2.93;1.80;;;4.80;97.40;;;;;;5033557;28;20506;-74
2023/04/03 07:26:41;;;;;;;4.27;1.57;;;5.00;96.90;;;;;;5034089;28;20890;-74
2023/04/03 07:29:07;;;;;;;2.77;1.60;;;5.10;96.70;;;;;;5034096;28;20170;-77
2023/04/03 07:31:33;;;;;;;1.40;0.70;;;5.10;95.10;;;;;;5033111;28;20913;-74
2023/04/03 07:33:59;;;;;;;2.17;2.08;;;5.30;94.40;;;;;;5015429;28;20174;-74
2023/04/03 07:36:25;;;;;;;0.97;0.97;;;5.10;94.20;;;;;;5033871;28;20166;-72
2023/04/03 07:38:50;;;;;;;1.13;1.13;;;4.90;93.90;;;;;;5033319;28;20505;-74
2023/04/03 07:41:18;;;;;;;0.40;0.40;;;4.90;93.80;;;;;;5032972;28;20222;-74
2023/04/03 07:43:44;;;;;;;1.45;1.45;;;5.00;93.60;;;;;;5033270;28;20179;-74
2023/04/03 07:46:10;;;;;;;1.40;1.30;;;5.10;94.50;;;;;;5033009;28;20178;-74
2023/04/03 07:48:36;;;;;;;1.90;0.80;;;5.10;94.10;;;;;;5033444;28;20174;-74
2023/04/03 07:51:04;;;;;;;0.30;0.30;;;5.10;93.80;;;;;;5033233;28;20453;-74
2023/04/03 07:53:32;;;;;;;1.23;1.23;;;5.00;93.20;;;;;;5033078;28;20487;-74
2023/04/03 07:55:59;;;;;;;1.25;0.55;;;4.50;93.70;;;;;;5033825;28;20569;-76
2023/04/03 07:58:25;;;;;;;0.40;0.40;;;4.70;93.80;;;;;;5033796;28;20173;-71
2023/04/03 08:00:51;;;;;;;1.35;0.95;;;4.40;93.70;;;;;;5033248;28;20195;-73
2023/04/03 08:03:17;;;;;;;0.68;0.68;;;4.10;94.10;;;;;;5032814;28;20232;-73
2023/04/03 08:05:45;;;;;;;6.60;2.43;;;4.00;94.50;;;;;;5033186;28;20166;-73
2023/04/03 08:08:13;;;;;;;0.73;0.73;;;4.10;94.80;;;;;;5033490;28;20190;-72
2023/04/03 08:10:39;;;;;;;2.70;1.88;;;4.10;94.10;;;;;;5032918;28;20253;-72
2023/04/03 08:13:05;;;;;;;1.20;0.82;;;4.10;93.80;;;;;;5032599;28;20179;-72
2023/04/03 08:15:31;;;;;;;1.45;0.90;;;4.30;94.00;;;;;;5033141;28;20229;-72
2023/04/03 08:17:58;;;;;;;1.48;1.38;;;4.40;94.10;;;;;;5033344;28;20174;-72
2023/04/03 08:20:23;;;;;;;2.45;1.25;;;4.40;93.20;;;;;;5033285;28;20199;-71
2023/04/03 08:22:49;;;;;;;0.50;0.50;;;4.50;93.50;;;;;;5033074;28;20662;-73
2023/04/03 08:25:15;;;;;;;0.83;0.83;;;4.50;93.00;;;;;;5033584;28;20224;-75
2023/04/03 08:27:41;;;;;;;0.70;0.50;;;4.60;93.30;;;;;;5033140;28;20178;-77
2023/04/03 08:30:08;;;;;;;1.23;1.13;;;4.60;93.00;;;;;;5033322;28;20440;-74
2023/04/03 08:32:35;;;;;;;0.40;0.40;;;4.50;93.20;;;;;;5033213;28;20171;-74
2023/04/03 08:35:01;;;;;;;2.10;1.63;;;4.60;93.30;;;;;;5032857;28;20539;-76
2023/04/03 08:37:27;;;;;;;1.98;1.13;;;4.70;93.40;;;;;;5033313;28;20595;-72
2023/04/03 08:39:53;;;;;;;2.10;2.00;;;5.00;93.40;;;;;;5032553;28;20206;-74
2023/04/03 08:42:51;;;;;;;0.85;0.85;;;4.70;92.40;;;;;;5032728;28;20408;-75
2023/04/03 08:45:32;;;;;;;2.13;1.83;;;4.70;91.80;;;;;;5008605;28;20218;-75
2023/04/03 08:48:07;;;;;;;2.05;1.95;;;4.60;91.90;;;;;;5033315;28;20186;-75
2023/04/03 08:50:44;;;;;;;1.88;1.77;;;4.70;91.70;;;;;;5032767;28;20210;-75
2023/04/03 08:53:23;;;;;;;0.50;0.50;;;4.70;92.00;;;;;;5032434;28;20202;-74
2023/04/03 08:55:51;;;;;;;0.90;0.90;;;4.70;91.60;;;;;;5036804;28;20167;-73
2023/04/03 08:58:26;;;;;;;0.60;0.60;;;4.10;91.40;;;;;;5036966;28;20571;-74
2023/04/03 09:01:36;;;;;;;0.73;0.73;;;4.10;92.30;;;;;;5036866;28;20281;-75
2023/04/03 09:04:10;;;;;;;0.40;0.40;;;4.50;92.70;;;;;;4955539;29;20181;-74
2023/04/03 09:06:37;;;;;;;0.50;0.50;;;4.60;90.30;;;;;;4956222;29;20182;-75
2023/04/03 09:09:32;;;;;;;2.97;1.52;;;4.40;90.90;;;;;;5001412;28;20271;-75
2023/04/03 09:12:09;;;;;;;0.50;0.50;;;4.30;91.20;;;;;;5036235;28;20191;-74
2023/04/03 09:14:55;;;;;;;0.93;0.93;;;4.00;90.70;;;;;;5034430;28;20163;-72
2023/04/03 09:17:51;;;;;;;0.50;0.50;;;3.90;91.00;;;;;;5035417;28;20253;-73
2023/04/03 09:20:25;;;;;;;0.40;0.40;;;4.30;92.50;;;;;;5036259;28;20253;-72
2023/04/03 09:22:53;;;;;;;0.40;0.40;;;4.90;98.50;;;;;;5036187;28;20162;-73
2023/04/03 09:25:35;;;;;;;0.50;0.50;;;4.60;90.30;;;;;;5036206;28;20258;-72
2023/04/03 09:28:02;;;;;;;0.60;0.60;;;5.20;88.20;;;;;;5035313;28;20169;-72
2023/04/03 09:30:30;;;;;;;1.40;1.40;;;5.20;84.90;;;;;;5035711;28;20209;-73
2023/04/03 09:32:57;;;;;;;0.40;0.40;;;5.40;85.30;;;;;;5033376;28;20172;-73
2023/04/03 09:35:32;;;;;;;0.98;0.98;;;6.00;87.00;;;;;;5034258;28;20188;-73
2023/04/03 09:38:19;;;;;;;0.68;0.68;;;6.20;85.40;;;;;;5034273;28;20285;-73
2023/04/03 09:41:05;;;;;;;0.50;0.50;;;5.90;85.50;;;;;;5034701;28;20207;-73
2023/04/03 09:43:32;;;;;;;0.40;0.40;;;5.80;84.10;;;;;;5034632;28;20244;-72
2023/04/03 09:46:17;;;;;;;0.70;0.60;;;5.60;85.70;;;;;;5036005;28;20267;-72
2023/04/03 09:48:52;;;;;;;0.90;0.90;;;5.20;87.90;;;;;;5035865;28;20229;-73
2023/04/03 09:51:18;;;;;;;0.35;0.35;;;4.70;90.00;;;;;;5035479;28;20229;-72
2023/04/03 09:53:45;;;;;;;0.40;0.40;;;5.30;90.20;;;;;;5034975;28;20168;-73
2023/04/03 09:56:13;;;;;;;1.40;0.60;;;4.90;88.70;;;;;;5035801;28;20206;-73
2023/04/03 09:58:41;;;;;;;0.40;0.40;;;4.50;90.30;;;;;;5035196;28;20638;-72
2023/04/03 10:01:23;;;;;;;1.67;1.58;;;4.70;90.00;;;;;;5035766;28;20195;-72
2023/04/03 10:04:04;;;;;;;1.65;1.58;;;5.60;88.50;;;;;;5035221;28;20230;-72
2023/04/03 10:06:35;;;;;;;0.50;0.50;;;4.90;86.80;;;;;;5035443;28;20172;-74
2023/04/03 10:09:05;;;;;;;0.40;0.40;;;5.30;90.00;;;;;;5035471;28;20312;-75
2023/04/03 10:11:31;;;;;;;2.28;0.50;;;6.10;87.70;;;;;;5035425;28;20215;-75
2023/04/03 10:13:59;;;;;;;0.40;0.40;;;6.40;86.30;;;;;;5034499;28;20178;-74
2023/04/03 10:16:47;;;;;;;0.40;0.40;;;7.00;83.00;;;;;;5034945;28;20184;-74
2023/04/03 10:19:34;;;;;;;1.30;0.55;;;7.50;77.10;;;;;;5035258;28;20622;-72
2023/04/03 10:22:36;;;;;;;0.60;0.60;;;7.40;81.20;;;;;;5035443;28;20177;-72
2023/04/03 10:25:23;;;;;;;0.30;0.30;;;7.40;80.20;;;;;;4990456;28;20295;-74
2023/04/03 10:28:00;;;;;;;1.25;1.15;;;7.40;77.30;;;;;;5035378;28;20167;-74
2023/04/03 10:30:28;;;;;;;0.65;0.65;;;7.50;79.30;;;;;;5034761;28;20198;-71
2023/04/03 10:33:21;;;;;;;0.45;0.45;;;6.90;81.10;;;;;;5034265;28;20520;-72
2023/04/03 10:36:16;;;;;;;1.60;1.50;;;6.90;80.30;;;;;;5034905;28;20512;-73
2023/04/03 10:39:04;;;;;;;0.30;0.30;;;7.00;83.00;;;;;;5034870;28;20356;-72
2023/04/03 10:41:45;;;;;;;0.55;0.55;;;8.20;80.80;;;;;;5034325;28;20285;-72
2023/04/03 10:44:23;;;;;;;0.70;0.70;;;8.00;74.10;;;;;;5033279;28;20179;-74
2023/04/03 10:46:53;;;;;;;0.40;0.40;;;7.70;74.30;;;;;;5033437;28;20170;-72
2023/04/03 10:49:42;;;;;;;0.70;0.70;;;7.20;79.30;;;;;;5034258;28;20213;-70
2023/04/03 10:52:30;;;;;;;0.40;0.40;;;7.30;75.00;;;;;;5033291;28;20687;-75
2023/04/03 10:55:07;;;;;;;0.50;0.50;;;6.80;78.00;;;;;;5034140;28;20523;-72
2023/04/03 10:57:33;;;;;;;1.30;1.20;;;6.80;80.60;;;;;;5034320;28;20176;-72
2023/04/03 11:00:17;;;;;;;0.40;0.40;;;6.80;77.70;;;;;;5034121;28;20194;-72
2023/04/03 11:02:56;;;;;;;0.43;0.43;;;6.60;79.70;;;;;;5034350;28;20411;-72
2023/04/03 11:05:45;;;;;;;0.73;0.73;;;6.40;77.40;;;;;;5034323;28;20169;-72
2023/04/03 11:08:33;;;;;;;0.60;0.60;;;6.20;79.30;;;;;;5016283;28;20493;-73
2023/04/03 11:11:05;;;;;;;0.63;0.55;;;6.00;80.30;;;;;;5033225;28;20541;-73
2023/04/03 11:13:52;;;;;;;0.43;0.43;;;6.00;83.10;;;;;;5032885;28;20226;-73
2023/04/03 11:16:23;;;;;;;1.20;0.82;;;6.00;83.20;;;;;;5032664;28;20167;-72
2023/04/03 11:19:24;;;;;;;2.05;1.92;;;5.60;83.50;;;;;;5032001;28;20539;-72
2023/04/03 11:22:13;;;;;;;0.50;0.50;;;5.30;86.20;;;;;;5018715;28;20186;-73
2023/04/03 11:24:42;;;;;;;0.50;0.50;;;5.30;88.20;;;;;;5033033;28;20534;-72
2023/04/03 11:27:18;;;;;;;0.50;0.50;;;5.80;83.60;;;;;;5033245;28;20540;-73
2023/04/03 11:29:46;;;;;;;0.60;0.60;;;6.10;83.70;;;;;;5032866;28;20593;-72
2023/04/03 11:32:49;;;;;;;0.50;0.50;;;6.20;84.20;;;;;;5032629;28;20200;-72
2023/04/03 11:35:18;;;;;;;0.40;0.40;;;5.90;82.00;;;;;;5033430;28;20165;-72
2023/04/03 11:37:53;;;;;;;0.40;0.40;;;5.60;80.80;;;;;;5033518;28;20175;-72
2023/04/03 11:40:26;;;;;;;0.70;0.70;;;5.70;82.70;;;;;;5033282;28;20194;-73
2023/04/03 11:43:16;;;;;;;0.40;0.40;;;6.00;81.30;;;;;;5032973;28;20532;-73
2023/04/03 11:46:04;;;;;;;0.60;0.60;;;6.50;85.00;;;;;;5033341;28;20196;-72
2023/04/03 11:48:31;;;;;;;0.73;0.73;;;6.90;80.60;;;;;;5033449;28;20513;-73
2023/04/03 11:50:58;;;;;;;0.70;0.70;;;6.20;80.90;;;;;;5033076;28;20206;-73
2023/04/03 11:53:32;;;;;;;0.40;0.40;;;5.60;81.20;;;;;;5032778;28;20257;-72
2023/04/03 11:56:17;;;;;;;1.08;1.08;;;5.70;85.50;;;;;;5033417;28;20171;-72
2023/04/03 11:59:05;;;;;;;0.40;0.40;;;5.60;86.60;;;;;;5033592;28;20177;-73
2023/04/03 12:01:49;;;;;;;0.50;0.50;;;5.90;84.00;;;;;;5032899;28;20209;-72
2023/04/03 12:04:17;;;;;;;0.68;0.68;;;6.20;81.60;;;;;;5032903;28;20544;-72
2023/04/03 12:06:49;;;;;;;0.40;0.40;;;6.50;80.80;;;;;;5033317;28;20172;-72
2023/04/03 12:09:41;;;;;;;0.60;0.60;;;5.90;80.50;;;;;;5033209;28;20588;-72
2023/04/03 12:12:28;;;;;;;0.55;0.55;;;5.80;81.90;;;;;;5032888;28;20555;-72
2023/04/03 12:14:54;;;;;;;0.65;0.65;;;6.20;79.80;;;;;;5032495;28;20177;-72
2023/04/03 12:17:27;;;;;;;1.53;1.10;;;6.50;79.40;;;;;;5033054;28;20188;-72
2023/04/03 12:19:53;;;;;;;0.40;0.40;;;6.50;78.70;;;;;;5033179;28;20193;-72
2023/04/03 12:22:20;;;;;;;0.43;0.43;;;6.60;76.90;;;;;;5033067;28;20183;-72
2023/04/03 12:24:52;;;;;;;1.85;1.75;;;6.30;80.60;;;;;;5032496;28;20191;-72
2023/04/03 12:27:34;;;;;;;0.43;0.43;;;6.50;77.60;;;;;;5033898;28;20507;-72
2023/04/03 12:30:06;;;;;;;0.82;0.82;;;6.40;80.20;;;;;;5036804;28;20192;-73
2023/04/03 12:33:01;;;;;;;0.50;0.50;;;6.40;80.40;;;;;;5019078;28;20212;-72
2023/04/03 12:35:42;;;;;;;0.90;0.90;;;6.20;79.60;;;;;;5036917;28;20282;-72
2023/04/03 12:38:36;;;;;;;0.40;0.40;;;5.30;82.40;;;;;;5036988;28;20177;-72
2023/04/03 12:41:35;;;;;;;0.73;0.73;;;5.20;82.40;;;;;;5036588;28;20195;-72
2023/04/03 12:44:01;;;;;;;0.40;0.40;;;4.90;83.70;;;;;;5036206;28;20167;-72
2023/04/03 12:46:42;;;;;;;0.97;0.97;;;5.30;85.80;;;;;;5036790;28;20193;-72
2023/04/03 12:49:30;;;;;;;0.40;0.40;;;5.40;82.70;;;;;;5036743;28;20178;-72
2023/04/03 12:51:56;;;;;;;0.30;0.30;;;5.50;83.80;;;;;;5036399;28;20187;-72
2023/04/03 12:54:32;;;;;;;0.70;0.70;;;5.50;82.20;;;;;;5036040;28;20678;-72
2023/04/03 12:57:18;;;;;;;0.85;0.85;;;5.50;83.50;;;;;;5036639;28;20175;-72
2023/04/03 12:59:46;;;;;;;0.50;0.50;;;5.70;83.20;;;;;;5036519;28;20264;-73
2023/04/03 13:02:28;;;;;;;2.58;2.38;;;6.20;84.70;;;;;;5036258;28;20168;-72
2023/04/03 13:04:57;;;;;;;1.85;1.55;;;6.60;82.90;;;;;;5035748;28;20181;-72
2023/04/03 13:07:38;;;;;;;0.40;0.40;;;7.00;81.10;;;;;;5036211;28;20169;-73
2023/04/03 13:10:09;;;;;;;0.77;0.77;;;7.30;82.70;;;;;;5036120;28;20299;-72
2023/04/03 13:12:46;;;;;;;1.88;1.77;;;7.50;80.10;;;;;;5036174;28;20173;-73
2023/04/03 13:15:22;;;;;;;0.95;0.95;;;7.10;77.00;;;;;;5035652;28;20196;-72